| time (UTC) | temp F | wind direction | speed MPH | gust MPH | rain 1hr in | rain 24hr in | rain mn in | humidity % | barometer mb |
| 20260902013009 | 78 | 294 | 0.0 | 1.0 | 0.00 | 0.00 | 0.00 | 71 | 1016.9 |
| 20260902011512 | 79 | 294 | 0.0 | 1.0 | 0.00 | 0.00 | 0.00 | 70 | 1016.7 |
| 20260902010024 | 79 | 272 | 0.0 | 2.0 | 0.00 | 0.00 | 0.00 | 69 | 1016.6 |
| 20260902004529 | 80 | 264 | 1.0 | 3.0 | 0.00 | 0.00 | 0.00 | 68 | 1016.5 |
| 20260902003039 | 81 | 260 | 1.0 | 3.0 | 0.00 | 0.00 | 0.00 | 67 | 1016.2 |
| 20260902001514 | 81 | 255 | 0.0 | 6.0 | 0.00 | 0.00 | 0.00 | 66 | 1016.2 |
| 20260902000020 | 82 | 227 | 1.0 | 5.0 | 0.00 | 0.00 | 0.00 | 66 | 1016.4 |
| 20260901234523 | 83 | 302 | 2.0 | 7.0 | 0.00 | 0.00 | 0.00 | 65 | 1016.4 |
| 20260901233027 | 83 | 265 | 1.0 | 6.0 | 0.00 | 0.00 | 0.00 | 63 | 1016.6 |
| 20260901231532 | 83 | 157 | 3.0 | 6.0 | 0.00 | 0.00 | 0.00 | 61 | 1016.7 |
| 20260901230018 | 84 | 147 | 3.0 | 8.0 | 0.00 | 0.00 | 0.00 | 61 | 1016.8 |
| 20260901224522 | 85 | 301 | 3.0 | 9.0 | 0.00 | 0.00 | 0.00 | 61 | 1017.0 |
| 20260901223039 | 86 | 311 | 5.0 | 10.0 | 0.00 | 0.00 | 0.00 | 60 | 1017.1 |
| 20260901221527 | 86 | 283 | 5.0 | 13.0 | 0.00 | 0.00 | 0.00 | 60 | 1017.0 |
| 20260901220036 | 87 | 290 | 3.0 | 9.0 | 0.00 | 0.00 | 0.00 | 60 | 1017.0 |
| 20260901214535 | 88 | 259 | 2.0 | 8.0 | 0.00 | 0.00 | 0.00 | 63 | 1016.8 |
| 20260901213026 | 88 | 213 | 2.0 | 6.0 | 0.00 | 0.00 | 0.00 | 63 | 1016.6 |
| 20260901211530 | 88 | 335 | 4.0 | 9.0 | 0.00 | 0.00 | 0.00 | 63 | 1016.8 |
| 20260901210031 | 88 | 206 | 2.0 | 8.0 | 0.00 | 0.00 | 0.00 | 62 | 1017.0 |
| 20260901204511 | 88 | 180 | 2.0 | 5.0 | 0.00 | 0.00 | 0.00 | 62 | 1017.0 |
| 20260901203006 | 88 | 110 | 2.0 | 7.0 | 0.00 | 0.00 | 0.00 | 62 | 1016.9 |
| 20260901201503 | 89 | 235 | 4.0 | 8.0 | 0.00 | 0.00 | 0.00 | 58 | 1016.8 |
| 20260901200006 | 89 | 233 | 2.0 | 9.0 | 0.00 | 0.00 | 0.00 | 58 | 1016.6 |
| 20260901194511 | 89 | 299 | 3.0 | 9.0 | 0.00 | 0.00 | 0.00 | 57 | 1016.6 |
| 20260901193012 | 89 | 171 | 3.0 | 8.0 | 0.00 | 0.00 | 0.00 | 58 | 1016.6 |
| 20260901191504 | 89 | 293 | 4.0 | 6.0 | 0.00 | 0.00 | 0.00 | 57 | 1016.6 |
| 20260901190005 | 89 | 344 | 1.0 | 8.0 | 0.00 | 0.00 | 0.00 | 61 | 1016.6 |
| 20260901184515 | 89 | 291 | 2.0 | 9.0 | 0.00 | 0.00 | 0.00 | 59 | 1016.8 |
| 20260901183012 | 88 | 212 | 1.0 | 8.0 | 0.00 | 0.00 | 0.00 | 60 | 1016.7 |
| 20260901181516 | 87 | 326 | 4.0 | 8.0 | 0.00 | 0.00 | 0.00 | 61 | 1016.9 |
| 20260901180003 | 87 | 295 | 1.0 | 7.0 | 0.00 | 0.00 | 0.00 | 64 | 1016.8 |
| 20260901174507 | 88 | 306 | 1.0 | 8.0 | 0.00 | 0.00 | 0.00 | 63 | 1016.9 |
| 20260901173008 | 88 | 304 | 3.0 | 12.0 | 0.00 | 0.00 | 0.00 | 61 | 1016.9 |
| 20260901171513 | 88 | 296 | 2.0 | 9.0 | 0.00 | 0.00 | 0.00 | 62 | 1017.1 |
| 20260901170021 | 88 | 278 | 5.0 | 10.0 | 0.00 | 0.00 | 0.00 | 62 | 1017.3 |
| 20260901164504 | 87 | 312 | 3.0 | 8.0 | 0.00 | 0.00 | 0.00 | 62 | 1017.5 |
| 20260901163004 | 86 | 266 | 3.0 | 7.0 | 0.00 | 0.00 | 0.00 | 65 | 1017.6 |
| 20260901161512 | 86 | 285 | 3.0 | 9.0 | 0.00 | 0.00 | 0.00 | 65 | 1017.6 |
| 20260901160021 | 85 | 309 | 6.0 | 11.0 | 0.00 | 0.00 | 0.00 | 64 | 1017.6 |
| 20260901154522 | 84 | 304 | 2.0 | 8.0 | 0.00 | 0.00 | 0.00 | 67 | 1017.5 |
| 20260901153028 | 84 | 310 | 2.0 | 8.0 | 0.00 | 0.00 | 0.00 | 67 | 1017.4 |
| 20260901151509 | 84 | 268 | 3.0 | 8.0 | 0.00 | 0.00 | 0.00 | 68 | 1017.6 |
| 20260901150012 | 83 | 274 | 4.0 | 8.0 | 0.00 | 0.00 | 0.00 | 68 | 1017.6 |
| 20260901144516 | 83 | 346 | 3.0 | 7.0 | 0.00 | 0.00 | 0.00 | 68 | 1017.6 |
| 20260901143026 | 83 | 271 | 2.0 | 9.0 | 0.00 | 0.00 | 0.00 | 69 | 1017.3 |
| 20260901141535 | 82 | 256 | 4.0 | 10.0 | 0.00 | 0.00 | 0.00 | 68 | 1017.3 |
| 20260901140007 | 82 | 288 | 4.0 | 10.0 | 0.00 | 0.00 | 0.00 | 69 | 1017.2 |
| 20260901134516 | 81 | 305 | 2.0 | 7.0 | 0.00 | 0.00 | 0.00 | 71 | 1017.1 |
| 20260901133023 | 80 | 274 | 2.0 | 6.0 | 0.00 | 0.00 | 0.00 | 73 | 1017.3 |
| 20260901131527 | 79 | 307 | 0.0 | 7.0 | 0.00 | 0.00 | 0.00 | 75 | 1017.4 |
| 20260901130035 | 79 | 193 | 2.0 | 6.0 | 0.00 | 0.00 | 0.00 | 75 | 1017.5 |
| 20260901124510 | 77 | 285 | 0.0 | 3.0 | 0.00 | 0.00 | 0.00 | 78 | 1017.5 |
| 20260901123018 | 76 | 291 | 0.0 | 3.0 | 0.00 | 0.00 | 0.00 | 78 | 1017.6 |
| 20260901121527 | 76 | 264 | 0.0 | 2.0 | 0.00 | 0.00 | 0.00 | 79 | 1017.5 |
| 20260901120031 | 76 | 244 | 0.0 | 2.0 | 0.00 | 0.00 | 0.00 | 79 | 1017.5 |
| 20260901114517 | 76 | 164 | 0.0 | 1.0 | 0.00 | 0.00 | 0.00 | 80 | 1017.4 |
| 20260901113014 | 75 | 269 | 0.0 | 1.0 | 0.00 | 0.00 | 0.00 | 80 | 1017.4 |
| 20260901111506 | 75 | 162 | 0.0 | 2.0 | 0.00 | 0.00 | 0.00 | 81 | 1017.2 |
| 20260901110005 | 75 | 262 | 0.0 | 3.0 | 0.00 | 0.00 | 0.00 | 81 | 1017.1 |
| 20260901104509 | 74 | 237 | 0.0 | 1.0 | 0.00 | 0.00 | 0.00 | 81 | 1017.0 |
| 20260901103012 | 75 | 226 | 0.0 | 3.0 | 0.00 | 0.00 | 0.00 | 81 | 1017.0 |
| 20260901101521 | 74 | 208 | 0.0 | 2.0 | 0.00 | 0.00 | 0.00 | 81 | 1017.0 |
| 20260901100004 | 74 | 161 | 0.0 | 2.0 | 0.00 | 0.00 | 0.00 | 81 | 1016.9 |
| 20260901094508 | 74 | 226 | 0.0 | 3.0 | 0.00 | 0.00 | 0.00 | 81 | 1016.9 |
| 20260901093010 | 74 | 195 | 0.0 | 3.0 | 0.00 | 0.00 | 0.00 | 80 | 1016.9 |
| 20260901091514 | 75 | 214 | 0.0 | 3.0 | 0.00 | 0.00 | 0.00 | 80 | 1016.9 |
| 20260901090023 | 75 | 158 | 0.0 | 3.0 | 0.00 | 0.00 | 0.00 | 79 | 1017.0 |
| 20260901084504 | 75 | 144 | 1.0 | 4.0 | 0.00 | 0.00 | 0.00 | 79 | 1016.9 |
| 20260901083009 | 75 | 217 | 0.0 | 5.0 | 0.00 | 0.00 | 0.00 | 78 | 1017.0 |
| 20260901081522 | 75 | 224 | 1.0 | 8.0 | 0.00 | 0.00 | 0.00 | 78 | 1017.0 |
| 20260901080024 | 75 | 293 | 0.0 | 5.0 | 0.00 | 0.00 | 0.00 | 78 | 1017.1 |
| 20260901074523 | 75 | 207 | 0.0 | 3.0 | 0.00 | 0.00 | 0.00 | 79 | 1017.1 |
| 20260901073028 | 75 | 176 | 0.0 | 5.0 | 0.00 | 0.00 | 0.00 | 78 | 1017.0 |
| 20260901071511 | 75 | 141 | 0.0 | 3.0 | 0.00 | 0.00 | 0.00 | 79 | 1017.1 |
| 20260901070014 | 75 | 257 | 0.0 | 4.0 | 0.00 | 0.00 | 0.00 | 78 | 1017.0 |
| 20260901064525 | 75 | 143 | 1.0 | 6.0 | 0.00 | 0.00 | 0.00 | 78 | 1017.1 |
| 20260901063034 | 76 | 98 | 1.0 | 4.0 | 0.00 | 0.00 | 0.00 | 78 | 1017.1 |
| 20260901061530 | 76 | 120 | 1.0 | 4.0 | 0.00 | 0.00 | 0.00 | 79 | 1017.1 |
| 20260901060012 | 76 | 134 | 1.0 | 5.0 | 0.00 | 0.00 | 0.00 | 78 | 1017.3 |
| 20260901054531 | 75 | 163 | 1.0 | 4.0 | 0.00 | 0.00 | 0.00 | 78 | 1017.4 |
| 20260901053023 | 75 | 185 | 1.0 | 3.0 | 0.00 | 0.00 | 0.00 | 79 | 1017.5 |
| 20260901051530 | 75 | 131 | 0.0 | 3.0 | 0.00 | 0.00 | 0.00 | 80 | 1017.5 |
| 20260901050030 | 75 | 189 | 0.0 | 2.0 | 0.00 | 0.00 | 0.00 | 81 | 1017.7 |
| 20260901044516 | 75 | 129 | 0.0 | 1.0 | 0.00 | 0.00 | 0.00 | 82 | 1017.6 |
| 20260901043025 | 74 | 98 | 0.0 | 2.0 | 0.00 | 0.00 | 0.00 | 82 | 1017.5 |
| 20260901041527 | 74 | 105 | 0.0 | 1.0 | 0.00 | 0.01 | 0.00 | 82 | 1017.7 |
| 20260901040032 | 74 | 212 | 0.0 | 2.0 | 0.00 | 0.02 | 0.00 | 82 | 1017.7 |
| 20260901034531 | 74 | 105 | 0.0 | 1.0 | 0.00 | 0.02 | 0.02 | 82 | 1017.7 |
| 20260901033017 | 74 | 132 | 0.0 | 1.0 | 0.00 | 0.02 | 0.02 | 81 | 1017.8 |
| 20260901031529 | 74 | 132 | 0.0 | 1.0 | 0.00 | 0.02 | 0.02 | 82 | 1017.6 |
| 20260901030033 | 74 | 92 | 0.0 | 0.0 | 0.00 | 0.02 | 0.02 | 81 | 1017.7 |
| 20260901024532 | 75 | 92 | 0.0 | 1.0 | 0.00 | 0.02 | 0.02 | 79 | 1017.5 |
| 20260901023032 | 75 | 231 | 0.0 | 2.0 | 0.00 | 0.02 | 0.02 | 78 | 1017.6 |
| 20260901021518 | 76 | 240 | 0.0 | 2.0 | 0.00 | 0.02 | 0.02 | 78 | 1017.7 |
| 20260901020024 | 76 | 212 | 0.0 | 1.0 | 0.00 | 0.02 | 0.02 | 77 | 1017.7 |
| 20260901014506 | 77 | 221 | 0.0 | 2.0 | 0.00 | 0.02 | 0.02 | 75 | 1017.7 |